KVJI/VJI METAR and TAF weather

Enter ICAO airport designator
Station Type Date Time Source
KVJI METAR 2018/12/10 01:55 UTC NOAA

KVJI 100155Z AUTO 08009KT 7SM -SN SCT037 OVC045 00/M01 A3001 RMK AO2 T10011015


Station Type Date Time Source
KVJI Decoded METAR 2018/12/10 01:55 UTC NOAA

Abingdon, VA, United States (KVJI) 36-41N 082-02W
Dec 09, 2018 - 08:55 PM EST / 2018.12.10 0155 UTC
Wind: from the E (080 degrees) at 10 MPH (9 KT):0
Visibility: 7 mile(s):0
Sky conditions: overcast
Weather: light snow
Temperature: 31.8 F (-0.1 C)
Windchill: 23 F (-5 C):1
Dew Point: 29.3 F (-1.5 C)
Relative Humidity: 90%
Pressure (altimeter): 30.01 in. Hg (1016 hPa)
ob: KVJI 100155Z AUTO 08009KT 7SM -SN SCT037 OVC045 00/M01 A3001 RMK AO2 T10011015
cycle: 2

Station Type Date Time Source
KVJI TAF UTC NOAA

Error!


Example: see airport list